TAF Text Data
IDs:
Format:
Raw Decoded Include METAR

Data at: 1950 UTC 13 Nov 2019

KSLN 131853Z 25007KT 10SM CLR 08/M08 A2995 RMK AO2 SLP150 T00831083

KSLN 131720Z 1318/1418 24012KT P6SM SCT250
  FM132100 35010KT P6SM FEW250
  FM140600 35008KT P6SM SCT020
  FM141300 35008KT P6SM SCT250


KATW 131930Z 18012KT 1 3/4SM -SN BKN010 OVC020 M07/M12 A2997

KATW 131720Z 1318/1418 20010G18KT 5SM -SN OVC035
  TEMPO 1318/1322 3/4SM -SN BKN011
  FM132200 21007KT 3SM -SN OVC024
  TEMPO 1322/1402 1SM -SN BKN011
  FM140300 23003KT 5SM -SN BKN035
  FM140600 28003KT P6SM SCT035 BKN100
  FM141500 28009G15KT P6SM FEW035